Montague Village, Texas
Current Conditions -  °F | °C
As of 9:58 PM on Friday 19 Dec 2014 (Local Time) from KHLR Reporting Station
Haze Haze  
Wind Chill: 41°   Ceiling: 1300
Heat Index: 46°   Visibility: 5mi
Dew Point: 46°   Wind: 9mph
Humidity: 98%   Direction: 330°NNW
Pressure: 30.18"   Gusts: NA
Location:  31.2151°N, 97.7405°W
Report Text: KHLR 200358Z AUTO 33008KT 5SM BR FEW005 OVC013 08/08 A3018 RMK AO2 SLPNO T00780075
Loading
Personal Weather Stations






























Interactive Weather Map New forecast layout! Learn more

10-Day Weather Forecast

Advertisements
Track Severe Weather on mobile